createdAt,value
2023-01-07T00:01:37.770Z,82.62
2023-01-07T00:04:07.128Z,82.60
2023-01-07T00:06:37.678Z,82.62
2023-01-07T00:09:07.217Z,82.58
2023-01-07T00:11:36.687Z,82.60
2023-01-07T00:14:05.849Z,82.63
2023-01-07T00:16:34.277Z,82.66
2023-01-07T00:19:04.005Z,82.67
2023-01-07T00:21:31.787Z,82.69
2023-01-07T00:24:02.200Z,82.67
2023-01-07T00:26:34.060Z,82.75
2023-01-07T00:29:02.647Z,82.79
2023-01-07T00:31:32.427Z,82.84
2023-01-07T00:34:00.307Z,82.95
2023-01-07T00:36:31.147Z,82.98
2023-01-07T00:39:01.277Z,83.05
2023-01-07T00:41:28.600Z,83.12
2023-01-07T00:43:56.086Z,83.07
2023-01-07T00:46:23.468Z,83.13
2023-01-07T00:48:51.516Z,83.14
2023-01-07T00:51:19.442Z,83.22
2023-01-07T00:53:46.945Z,83.27
2023-01-07T00:56:15.616Z,83.29
2023-01-07T00:58:43.080Z,83.21
2023-01-07T01:01:11.008Z,83.11
2023-01-07T01:03:38.861Z,83.03
2023-01-07T01:06:10.692Z,82.97
2023-01-07T01:08:37.918Z,82.98
2023-01-07T01:11:09.784Z,82.94
2023-01-07T01:13:37.565Z,82.93
2023-01-07T01:16:10.984Z,82.95
2023-01-07T01:18:38.711Z,82.96
2023-01-07T01:21:09.556Z,82.96
2023-01-07T01:23:36.604Z,82.95
2023-01-07T01:26:05.359Z,82.98
2023-01-07T01:28:33.654Z,82.99
2023-01-07T01:31:01.766Z,82.95
2023-01-07T01:33:33.494Z,82.94
2023-01-07T01:36:05.886Z,82.93
2023-01-07T01:38:32.983Z,82.90
2023-01-07T01:40:59.960Z,82.89
2023-01-07T01:43:36.278Z,82.87
2023-01-07T01:46:11.259Z,82.86
2023-01-07T01:48:42.899Z,82.86
2023-01-07T01:51:11.805Z,82.83
2023-01-07T01:53:38.958Z,82.78
2023-01-07T01:56:13.267Z,82.77
2023-01-07T01:58:50.195Z,82.68
2023-01-07T02:01:17.637Z,82.59
2023-01-07T02:03:46.072Z,82.53
2023-01-07T02:06:30.440Z,82.43
2023-01-07T02:08:57.587Z,82.39
2023-01-07T02:11:31.711Z,82.36
2023-01-07T02:14:07.544Z,82.31
2023-01-07T02:16:37.100Z,82.27
2023-01-07T02:19:13.221Z,82.21
2023-01-07T02:22:28.288Z,82.20
2023-01-07T02:25:16.424Z,82.11
2023-01-07T02:28:23.946Z,81.97
2023-01-07T02:31:06.051Z,81.83
2023-01-07T02:33:49.988Z,81.68
2023-01-07T02:36:31.197Z,81.49
2023-01-07T02:39:22.148Z,81.20
2023-01-07T02:41:59.445Z,81.10
2023-01-07T02:44:53.734Z,81.10
2023-01-07T02:47:23.650Z,81.56
2023-01-07T02:49:51.737Z,81.74
2023-01-07T02:52:27.990Z,81.75
2023-01-07T02:55:17.465Z,81.93
2023-01-07T02:57:44.307Z,81.97
2023-01-07T03:00:35.634Z,82.10
2023-01-07T03:03:32.973Z,82.21
2023-01-07T03:06:08.724Z,82.33
2023-01-07T03:09:00.552Z,82.38
2023-01-07T03:11:38.759Z,82.45
2023-01-07T03:14:19.957Z,82.51
2023-01-07T03:16:54.511Z,82.55
2023-01-07T03:19:30.189Z,82.62
2023-01-07T03:22:00.697Z,82.63
2023-01-07T03:24:29.469Z,82.68
2023-01-07T03:27:01.020Z,82.66
2023-01-07T03:29:31.550Z,82.56
2023-01-07T03:32:22.928Z,82.59
2023-01-07T03:34:50.608Z,82.48
2023-01-07T03:37:22.865Z,82.25
2023-01-07T03:39:50.835Z,81.98
2023-01-07T03:42:41.560Z,81.96
2023-01-07T03:45:19.351Z,82.00
2023-01-07T03:47:49.081Z,81.93
2023-01-07T03:50:18.267Z,81.92
2023-01-07T03:52:47.962Z,82.01
2023-01-07T03:55:15.025Z,82.12
2023-01-07T03:57:42.461Z,82.12
2023-01-07T04:00:11.252Z,81.89
2023-01-07T04:02:41.834Z,81.75
2023-01-07T04:05:13.764Z,81.64
2023-01-07T04:07:41.755Z,81.55
2023-01-07T04:10:09.585Z,81.57
2023-01-07T04:12:37.044Z,81.50
2023-01-07T04:15:04.914Z,81.63
2023-01-07T04:17:32.059Z,81.73
2023-01-07T04:19:58.918Z,81.85
2023-01-07T04:22:25.835Z,82.11
2023-01-07T04:24:53.192Z,82.29
2023-01-07T04:27:20.240Z,82.45
2023-01-07T04:29:47.647Z,82.58
2023-01-07T04:32:15.152Z,82.64
2023-01-07T04:34:42.030Z,82.71
2023-01-07T04:37:09.327Z,82.71
2023-01-07T04:39:36.410Z,82.68
2023-01-07T04:42:03.457Z,82.67
2023-01-07T04:44:30.289Z,82.74
2023-01-07T04:46:57.249Z,82.81
2023-01-07T04:49:24.568Z,82.86
2023-01-07T04:51:51.985Z,82.91
2023-01-07T04:54:18.992Z,82.91
2023-01-07T04:56:46.052Z,82.91
2023-01-07T04:59:13.388Z,82.95
2023-01-07T05:01:40.613Z,82.98
2023-01-07T05:04:08.106Z,83.04
2023-01-07T05:06:35.920Z,83.06
2023-01-07T05:09:03.537Z,83.12
2023-01-07T05:11:32.276Z,83.15
2023-01-07T05:14:00.501Z,83.22
2023-01-07T05:16:29.057Z,83.31
2023-01-07T05:18:58.180Z,83.45
2023-01-07T05:21:25.235Z,83.53
2023-01-07T05:23:52.883Z,83.59
2023-01-07T05:26:21.868Z,83.65
2023-01-07T05:28:48.819Z,83.66
2023-01-07T05:31:16.018Z,83.73
2023-01-07T05:33:43.631Z,83.76
2023-01-07T05:36:11.120Z,83.80
2023-01-07T05:38:38.352Z,83.85
2023-01-07T05:41:05.807Z,83.86
2023-01-07T05:43:32.648Z,83.74
2023-01-07T05:45:59.549Z,83.62
2023-01-07T05:48:26.858Z,83.59
2023-01-07T05:50:53.644Z,83.66
2023-01-07T05:53:20.419Z,83.80
2023-01-07T05:55:47.362Z,83.81
2023-01-07T05:58:14.327Z,83.74
2023-01-07T06:00:41.156Z,83.55
2023-01-07T06:03:08.088Z,83.55
2023-01-07T06:05:35.048Z,83.44
2023-01-07T06:08:02.044Z,83.43
2023-01-07T06:10:28.882Z,83.36
2023-01-07T06:12:55.572Z,83.35
2023-01-07T06:15:22.421Z,83.30
2023-01-07T06:17:49.252Z,83.34
2023-01-07T06:20:16.235Z,83.36
2023-01-07T06:22:43.174Z,83.56
2023-01-07T06:25:12.057Z,83.58
2023-01-07T06:27:40.362Z,83.39
2023-01-07T06:30:09.591Z,83.32
2023-01-07T06:32:41.488Z,83.25
2023-01-07T06:35:10.745Z,83.25
2023-01-07T06:37:38.470Z,83.32
2023-01-07T06:40:06.310Z,83.40
2023-01-07T06:42:33.565Z,83.44
2023-01-07T06:45:00.501Z,83.37
2023-01-07T06:47:27.345Z,83.31
2023-01-07T06:49:54.191Z,83.27
2023-01-07T06:52:21.344Z,83.26
2023-01-07T06:54:48.698Z,83.24
2023-01-07T06:57:15.656Z,83.25
2023-01-07T06:59:42.788Z,83.29
2023-01-07T07:02:21.631Z,83.29
2023-01-07T07:04:48.771Z,83.31
2023-01-07T07:07:17.150Z,83.30
2023-01-07T07:09:45.982Z,83.34
2023-01-07T07:12:13.747Z,83.38
2023-01-07T07:14:40.660Z,83.41
2023-01-07T07:17:07.900Z,83.39
2023-01-07T07:19:34.838Z,83.40
2023-01-07T07:22:03.903Z,83.44
2023-01-07T07:24:31.625Z,83.42
2023-01-07T07:26:59.706Z,83.45
2023-01-07T07:29:26.827Z,83.45
2023-01-07T07:31:53.878Z,83.46
2023-01-07T07:34:20.829Z,83.46
2023-01-07T07:36:47.756Z,83.50
2023-01-07T07:39:14.835Z,83.48
2023-01-07T07:41:41.851Z,83.44
2023-01-07T07:44:09.916Z,83.40
2023-01-07T07:46:36.998Z,83.39
2023-01-07T07:49:05.442Z,83.37
2023-01-07T07:51:32.786Z,83.38
2023-01-07T07:53:59.589Z,83.37
2023-01-07T07:56:26.283Z,83.39
2023-01-07T07:58:53.047Z,83.40
2023-01-07T08:01:19.942Z,83.32
2023-01-07T08:03:46.963Z,83.33
2023-01-07T08:06:13.995Z,83.27
2023-01-07T08:08:41.227Z,83.25
2023-01-07T08:11:08.124Z,83.20
2023-01-07T08:13:34.967Z,83.21
2023-01-07T08:16:02.091Z,83.14
2023-01-07T08:18:29.215Z,83.15
2023-01-07T08:20:56.145Z,83.16
2023-01-07T08:23:23.611Z,83.14
2023-01-07T08:25:50.579Z,83.19
2023-01-07T08:28:17.604Z,83.15
2023-01-07T08:30:45.142Z,83.16
2023-01-07T08:33:11.902Z,83.10
2023-01-07T08:35:38.717Z,83.09
2023-01-07T08:38:09.247Z,83.05
2023-01-07T08:40:37.351Z,82.89
2023-01-07T08:43:06.592Z,82.79
2023-01-07T08:45:33.481Z,82.69
2023-01-07T08:48:00.600Z,82.52
2023-01-07T08:50:29.850Z,82.33
2023-01-07T08:52:57.611Z,82.19
2023-01-07T08:55:25.590Z,82.10
2023-01-07T08:57:53.176Z,82.03
2023-01-07T09:00:20.800Z,81.92
2023-01-07T09:02:48.096Z,81.96
2023-01-07T09:05:15.927Z,81.95
2023-01-07T09:07:43.710Z,82.00
2023-01-07T09:10:11.471Z,81.98
2023-01-07T09:12:38.591Z,81.95
2023-01-07T09:15:06.650Z,81.90
2023-01-07T09:17:33.915Z,81.90
2023-01-07T09:20:03.309Z,81.90
2023-01-07T09:22:31.898Z,81.83
2023-01-07T09:24:59.249Z,81.85
2023-01-07T09:27:26.854Z,81.61
2023-01-07T09:29:54.438Z,81.37
2023-01-07T09:32:21.349Z,81.07
2023-01-07T09:34:48.335Z,80.85
2023-01-07T09:37:15.246Z,80.79
2023-01-07T09:39:42.157Z,80.71
2023-01-07T09:42:37.079Z,80.60
2023-01-07T09:45:17.943Z,80.59
2023-01-07T09:47:53.787Z,80.29
2023-01-07T09:50:25.188Z,80.04
2023-01-07T09:52:56.884Z,79.84
2023-01-07T09:55:31.195Z,79.66
2023-01-07T09:57:58.348Z,79.55
2023-01-07T10:00:25.709Z,79.53
2023-01-07T10:03:25.106Z,79.50
2023-01-07T10:06:42.028Z,79.51
2023-01-07T10:09:35.602Z,79.30
2023-01-07T10:12:19.544Z,79.05
2023-01-07T10:15:10.857Z,78.76
2023-01-07T10:17:47.231Z,78.60
2023-01-07T10:20:26.357Z,78.45
2023-01-07T10:22:53.317Z,78.41
2023-01-07T10:25:25.577Z,78.23
2023-01-07T10:27:55.660Z,77.94
2023-01-07T10:30:27.085Z,77.86
2023-01-07T10:33:10.937Z,77.85
2023-01-07T10:35:40.185Z,77.92
2023-01-07T10:38:17.529Z,77.82
2023-01-07T10:41:00.503Z,77.75
2023-01-07T10:43:50.080Z,77.57
2023-01-07T10:46:59.944Z,77.36
2023-01-07T10:49:48.888Z,77.15
2023-01-07T10:52:47.262Z,76.99
2023-01-07T10:55:36.950Z,76.89
2023-01-07T10:58:04.196Z,76.78
2023-01-07T11:00:32.558Z,76.59
2023-01-07T11:03:00.305Z,76.32
2023-01-07T11:05:38.239Z,75.96
2023-01-07T11:08:15.454Z,75.84
2023-01-07T11:10:42.381Z,75.56
2023-01-07T11:13:15.996Z,75.28
2023-01-07T11:15:48.497Z,75.21
2023-01-07T11:18:41.829Z,74.83
2023-01-07T11:21:08.971Z,74.43
2023-01-07T11:23:55.980Z,74.18
2023-01-07T11:26:26.805Z,74.02
2023-01-07T11:29:16.803Z,74.11
2023-01-07T11:31:52.279Z,74.30
2023-01-07T11:34:27.604Z,74.42
2023-01-07T11:36:54.722Z,74.44
2023-01-07T11:39:24.865Z,74.28
2023-01-07T11:41:57.941Z,74.02
2023-01-07T11:44:26.024Z,73.85
2023-01-07T11:46:54.689Z,73.59
2023-01-07T11:49:28.428Z,73.45
2023-01-07T11:51:56.084Z,73.42
2023-01-07T11:54:25.661Z,73.38
2023-01-07T11:56:54.947Z,73.28
2023-01-07T11:59:28.679Z,72.99
2023-01-07T12:02:01.274Z,72.80
2023-01-07T12:04:35.901Z,72.70
2023-01-07T12:07:12.742Z,72.75
2023-01-07T12:09:41.543Z,72.80
2023-01-07T12:12:38.548Z,72.90
2023-01-07T12:15:18.862Z,73.16
2023-01-07T12:17:51.234Z,73.06
2023-01-07T12:20:59.125Z,72.96
2023-01-07T12:23:32.432Z,72.77
2023-01-07T12:26:04.902Z,72.12
2023-01-07T12:28:54.996Z,71.88
2023-01-07T12:31:28.121Z,71.21
2023-01-07T12:34:28.738Z,70.58
2023-01-07T12:37:03.971Z,70.26
2023-01-07T12:39:35.673Z,70.24
2023-01-07T12:42:04.613Z,70.16
2023-01-07T12:44:33.896Z,70.09
2023-01-07T12:47:32.432Z,69.76
2023-01-07T12:50:17.245Z,69.92
2023-01-07T12:53:10.841Z,69.98
2023-01-07T12:55:52.102Z,69.95
2023-01-07T12:58:23.349Z,69.82
2023-01-07T13:01:05.642Z,69.61
2023-01-07T13:03:52.082Z,69.53
2023-01-07T13:06:42.338Z,69.73
2023-01-07T13:09:49.135Z,69.91
2023-01-07T13:12:43.706Z,70.14
2023-01-07T13:15:33.194Z,70.19
2023-01-07T13:18:19.492Z,70.02
2023-01-07T13:20:57.381Z,69.82
2023-01-07T13:24:02.440Z,69.75
2023-01-07T13:26:34.296Z,69.63
2023-01-07T13:29:01.226Z,69.60
2023-01-07T13:31:50.709Z,69.73
2023-01-07T13:34:37.737Z,69.95
2023-01-07T13:37:23.415Z,70.12
2023-01-07T13:40:14.743Z,70.10
2023-01-07T13:42:49.906Z,70.06
2023-01-07T13:45:21.377Z,70.11
2023-01-07T13:47:59.540Z,70.14
2023-01-07T13:50:42.966Z,70.14
2023-01-07T13:53:16.563Z,70.24
2023-01-07T13:55:46.166Z,70.17
2023-01-07T13:58:28.465Z,70.14
2023-01-07T14:01:01.869Z,70.20
2023-01-07T14:03:38.740Z,70.26
2023-01-07T14:06:18.085Z,70.34
2023-01-07T14:08:54.241Z,70.46
2023-01-07T14:11:32.108Z,70.59
2023-01-07T14:14:38.308Z,70.68
2023-01-07T14:17:16.221Z,70.80
2023-01-07T14:20:21.354Z,70.95
2023-01-07T14:22:48.290Z,71.14
2023-01-07T14:25:45.037Z,71.12
2023-01-07T14:28:39.954Z,71.27
2023-01-07T14:31:21.263Z,71.36
2023-01-07T14:34:07.474Z,71.30
2023-01-07T14:37:08.488Z,71.36
2023-01-07T14:39:37.867Z,71.46
2023-01-07T14:42:20.142Z,71.43
2023-01-07T14:44:51.369Z,71.56
2023-01-07T14:47:43.247Z,71.57
2023-01-07T14:50:47.885Z,71.63
2023-01-07T14:53:36.333Z,71.72
2023-01-07T14:56:41.340Z,71.83
2023-01-07T14:59:19.868Z,71.93
2023-01-07T15:02:24.843Z,72.07
2023-01-07T15:05:25.854Z,72.19
2023-01-07T15:08:20.692Z,72.29
2023-01-07T15:11:09.951Z,72.39
2023-01-07T15:14:02.488Z,72.60
2023-01-07T15:16:34.289Z,72.74
2023-01-07T15:19:02.173Z,72.84
2023-01-07T15:21:49.149Z,72.94
2023-01-07T15:24:25.148Z,73.07
2023-01-07T15:26:55.399Z,73.28
2023-01-07T15:29:34.320Z,73.40
2023-01-07T15:32:18.351Z,73.51
2023-01-07T15:34:46.430Z,73.58
2023-01-07T15:37:15.707Z,73.79
2023-01-07T15:39:53.859Z,73.92
2023-01-07T15:42:24.673Z,73.98
2023-01-07T15:44:54.394Z,74.07
2023-01-07T15:47:42.946Z,74.08
2023-01-07T15:50:27.436Z,73.96
2023-01-07T15:53:00.111Z,73.91
2023-01-07T15:55:35.833Z,73.99
2023-01-07T15:58:06.358Z,74.10
2023-01-07T16:00:34.436Z,74.37
2023-01-07T16:03:03.639Z,74.56
2023-01-07T16:05:31.699Z,74.74
2023-01-07T16:08:01.319Z,74.90
2023-01-07T16:10:34.575Z,75.08
2023-01-07T16:13:04.751Z,75.23
2023-01-07T16:15:35.310Z,75.40
2023-01-07T16:18:23.088Z,75.56
2023-01-07T16:20:58.451Z,75.60
2023-01-07T16:23:28.905Z,75.78
2023-01-07T16:26:19.161Z,75.99
2023-01-07T16:28:50.903Z,76.01
2023-01-07T16:31:22.076Z,76.11
2023-01-07T16:33:53.013Z,76.16
2023-01-07T16:36:23.212Z,76.30
2023-01-07T16:38:54.417Z,76.40
2023-01-07T16:41:27.482Z,76.51
2023-01-07T16:43:59.147Z,76.59
2023-01-07T16:46:26.504Z,76.45
2023-01-07T16:49:09.603Z,76.21
2023-01-07T16:51:40.126Z,76.37
2023-01-07T16:54:25.581Z,76.67
2023-01-07T16:57:17.734Z,76.74
2023-01-07T16:59:54.933Z,76.84
2023-01-07T17:02:33.751Z,76.65
2023-01-07T17:05:19.660Z,76.60
2023-01-07T17:07:51.032Z,76.64
2023-01-07T17:10:24.575Z,77.04
2023-01-07T17:12:59.341Z,77.35
2023-01-07T17:15:32.822Z,77.57
2023-01-07T17:18:12.657Z,77.77
2023-01-07T17:20:42.875Z,77.80
2023-01-07T17:23:25.618Z,77.85
2023-01-07T17:26:00.930Z,77.88
2023-01-07T17:28:49.655Z,78.07
2023-01-07T17:31:17.515Z,78.23
2023-01-07T17:33:45.422Z,78.44
2023-01-07T17:36:26.513Z,78.66
2023-01-07T17:38:54.868Z,78.63
2023-01-07T17:41:41.883Z,78.77
2023-01-07T17:44:12.331Z,78.73
2023-01-07T17:46:40.281Z,78.71
2023-01-07T17:49:11.203Z,78.74
2023-01-07T17:51:41.759Z,78.89
2023-01-07T17:54:19.345Z,79.05
2023-01-07T17:56:48.469Z,79.28
2023-01-07T17:59:18.993Z,79.42
2023-01-07T18:01:47.974Z,79.57
2023-01-07T18:04:17.274Z,79.78
2023-01-07T18:06:45.596Z,79.81
2023-01-07T18:09:13.954Z,79.85
2023-01-07T18:12:04.523Z,79.77
2023-01-07T18:14:33.259Z,79.77
2023-01-07T18:17:02.427Z,79.82
2023-01-07T18:19:31.166Z,79.80
2023-01-07T18:22:00.210Z,79.71
2023-01-07T18:24:31.440Z,79.82
2023-01-07T18:27:00.111Z,79.71
2023-01-07T18:29:27.375Z,79.80
2023-01-07T18:31:55.654Z,79.80
2023-01-07T18:34:23.710Z,79.83
2023-01-07T18:36:51.896Z,80.03
2023-01-07T18:39:21.514Z,80.00
2023-01-07T18:41:50.455Z,79.96
2023-01-07T18:44:19.391Z,80.16
2023-01-07T18:46:46.670Z,80.20
2023-01-07T18:49:14.802Z,80.25
2023-01-07T18:51:42.571Z,80.31
2023-01-07T18:54:11.266Z,80.49
2023-01-07T18:56:39.329Z,80.57
2023-01-07T18:59:07.010Z,80.67
2023-01-07T19:01:34.970Z,80.82
2023-01-07T19:04:04.725Z,80.95
2023-01-07T19:06:32.733Z,80.81
2023-01-07T19:08:59.991Z,80.88
2023-01-07T19:11:28.544Z,80.95
2023-01-07T19:13:56.422Z,80.98
2023-01-07T19:16:24.168Z,81.08
2023-01-07T19:18:52.794Z,81.13
2023-01-07T19:21:21.119Z,81.20
2023-01-07T19:23:49.412Z,81.17
2023-01-07T19:26:17.985Z,81.11
2023-01-07T19:28:46.733Z,81.26
2023-01-07T19:31:15.539Z,81.30
2023-01-07T19:33:43.915Z,81.30
2023-01-07T19:36:13.428Z,81.30
2023-01-07T19:38:45.051Z,81.40
2023-01-07T19:41:18.150Z,81.53
2023-01-07T19:43:47.045Z,81.54
2023-01-07T19:46:15.455Z,81.56
2023-01-07T19:48:42.864Z,81.73
2023-01-07T19:51:12.022Z,81.86
2023-01-07T19:53:39.849Z,81.86
2023-01-07T19:56:10.705Z,81.89
2023-01-07T19:58:40.278Z,81.93
2023-01-07T20:01:11.970Z,82.00
2023-01-07T20:03:41.451Z,81.96
2023-01-07T20:06:13.229Z,82.02
2023-01-07T20:08:41.365Z,82.14
2023-01-07T20:11:09.650Z,82.25
2023-01-07T20:13:38.827Z,82.33
2023-01-07T20:16:14.079Z,82.39
2023-01-07T20:18:46.444Z,82.38
2023-01-07T20:21:16.881Z,82.30
2023-01-07T20:23:45.566Z,82.26
2023-01-07T20:26:17.323Z,82.21
2023-01-07T20:28:46.655Z,82.24
2023-01-07T20:31:16.894Z,82.38
2023-01-07T20:33:45.015Z,82.39
2023-01-07T20:36:16.266Z,82.36
2023-01-07T20:38:45.490Z,82.33
2023-01-07T20:41:16.407Z,82.36
2023-01-07T20:43:44.784Z,82.34
2023-01-07T20:46:12.691Z,82.45
2023-01-07T20:48:41.817Z,82.58
2023-01-07T20:51:13.208Z,82.54
2023-01-07T20:53:42.219Z,82.52
2023-01-07T20:56:10.873Z,82.52
2023-01-07T20:58:39.296Z,82.60
2023-01-07T21:01:11.278Z,82.63
2023-01-07T21:03:40.560Z,82.68
2023-01-07T21:06:11.452Z,82.65
2023-01-07T21:08:40.354Z,82.60
2023-01-07T21:11:35.353Z,82.54
2023-01-07T21:14:06.143Z,82.53
2023-01-07T21:16:34.488Z,82.52
2023-01-07T21:19:04.451Z,82.49
2023-01-07T21:21:33.701Z,82.46
2023-01-07T21:24:01.134Z,82.30
2023-01-07T21:26:29.425Z,82.30
2023-01-07T21:28:59.270Z,82.29
2023-01-07T21:31:28.074Z,82.33
2023-01-07T21:33:58.293Z,82.25
2023-01-07T21:36:27.352Z,82.22
2023-01-07T21:38:58.507Z,82.19
2023-01-07T21:41:28.205Z,82.19
2023-01-07T21:43:56.047Z,82.20
2023-01-07T21:46:24.281Z,82.20
2023-01-07T21:48:52.120Z,82.10
2023-01-07T21:51:26.286Z,82.10
2023-01-07T21:53:57.138Z,82.02
2023-01-07T21:56:28.866Z,82.01
2023-01-07T21:58:57.186Z,81.96
2023-01-07T22:01:28.910Z,82.00
2023-01-07T22:03:59.007Z,81.97
2023-01-07T22:06:34.115Z,81.95
2023-01-07T22:09:05.368Z,81.92
2023-01-07T22:11:35.242Z,81.91
2023-01-07T22:14:03.743Z,81.93
2023-01-07T22:16:33.227Z,81.91
2023-01-07T22:19:02.541Z,81.87
2023-01-07T22:21:31.956Z,81.83
2023-01-07T22:23:59.512Z,81.80
2023-01-07T22:26:27.589Z,81.73
2023-01-07T22:29:02.652Z,81.73
2023-01-07T22:31:36.145Z,81.71
2023-01-07T22:34:05.912Z,81.69
2023-01-07T22:37:06.174Z,81.67
2023-01-07T22:39:36.656Z,81.66
2023-01-07T22:42:18.019Z,81.62
2023-01-07T22:44:53.424Z,81.60
2023-01-07T22:47:25.677Z,81.59
2023-01-07T22:49:54.036Z,81.59
2023-01-07T22:52:22.536Z,81.58
2023-01-07T22:54:50.033Z,81.57
2023-01-07T22:57:17.943Z,81.56
2023-01-07T22:59:47.051Z,81.56
2023-01-07T23:02:14.553Z,81.61
2023-01-07T23:04:41.909Z,81.65
2023-01-07T23:07:09.454Z,81.70
2023-01-07T23:09:36.970Z,81.68
2023-01-07T23:12:04.648Z,81.63
2023-01-07T23:14:32.194Z,81.58
2023-01-07T23:16:59.961Z,81.70
2023-01-07T23:19:27.417Z,81.73
2023-01-07T23:21:55.582Z,81.78
2023-01-07T23:24:22.813Z,81.81
2023-01-07T23:26:53.075Z,81.79
2023-01-07T23:29:21.160Z,81.82
2023-01-07T23:31:49.630Z,81.87
2023-01-07T23:34:16.870Z,81.92
2023-01-07T23:36:44.045Z,81.94
2023-01-07T23:39:12.212Z,81.98
2023-01-07T23:41:39.654Z,81.96
2023-01-07T23:44:06.996Z,81.93
2023-01-07T23:46:34.363Z,81.85
2023-01-07T23:49:01.708Z,81.80
2023-01-07T23:51:28.982Z,81.70
2023-01-07T23:53:56.302Z,81.69
2023-01-07T23:56:23.598Z,81.66
2023-01-07T23:58:50.812Z,81.73
